sensor_id;sensor_type;location;lat;lon;timestamp;temperature;humidity
19941;DHT22;10132;50.864;5.176;2024-02-14T00:01:03;9.30;99.90
19941;DHT22;10132;50.864;5.176;2024-02-14T00:03:04;9.30;99.90
19941;DHT22;10132;50.864;5.176;2024-02-14T00:05:07;9.30;99.90
19941;DHT22;10132;50.864;5.176;2024-02-14T00:07:10;9.30;99.90
19941;DHT22;10132;50.864;5.176;2024-02-14T00:09:11;9.30;99.90
19941;DHT22;10132;50.864;5.176;2024-02-14T00:11:13;9.30;99.90
19941;DHT22;10132;50.864;5.176;2024-02-14T00:13:15;9.40;99.90
19941;DHT22;10132;50.864;5.176;2024-02-14T00:15:18;9.30;99.90
19941;DHT22;10132;50.864;5.176;2024-02-14T00:17:22;9.30;99.90
19941;DHT22;10132;50.864;5.176;2024-02-14T00:19:24;9.40;99.90
19941;DHT22;10132;50.864;5.176;2024-02-14T00:21:26;9.40;99.90
19941;DHT22;10132;50.864;5.176;2024-02-14T00:23:28;9.40;99.90
19941;DHT22;10132;50.864;5.176;2024-02-14T00:25:30;9.40;99.90
19941;DHT22;10132;50.864;5.176;2024-02-14T00:27:32;9.40;99.90
19941;DHT22;10132;50.864;5.176;2024-02-14T00:29:34;9.40;99.90
19941;DHT22;10132;50.864;5.176;2024-02-14T00:31:35;9.40;99.90
19941;DHT22;10132;50.864;5.176;2024-02-14T00:33:38;9.40;99.90
19941;DHT22;10132;50.864;5.176;2024-02-14T00:35:41;9.40;99.90
19941;DHT22;10132;50.864;5.176;2024-02-14T00:37:43;9.50;99.90
19941;DHT22;10132;50.864;5.176;2024-02-14T00:39:45;9.50;99.90
19941;DHT22;10132;50.864;5.176;2024-02-14T00:41:49;9.40;99.90
19941;DHT22;10132;50.864;5.176;2024-02-14T00:43:50;9.40;99.90
19941;DHT22;10132;50.864;5.176;2024-02-14T00:45:52;9.40;99.90
19941;DHT22;10132;50.864;5.176;2024-02-14T00:47:54;9.40;99.90
19941;DHT22;10132;50.864;5.176;2024-02-14T00:49:58;9.40;99.90
19941;DHT22;10132;50.864;5.176;2024-02-14T00:51:59;9.40;99.90
19941;DHT22;10132;50.864;5.176;2024-02-14T00:54:01;9.30;99.90
19941;DHT22;10132;50.864;5.176;2024-02-14T00:56:04;9.40;99.90
19941;DHT22;10132;50.864;5.176;2024-02-14T00:58:06;9.40;99.90
19941;DHT22;10132;50.864;5.176;2024-02-14T01:00:09;9.30;99.90
19941;DHT22;10132;50.864;5.176;2024-02-14T01:02:11;9.30;99.90
19941;DHT22;10132;50.864;5.176;2024-02-14T01:04:13;9.40;99.90
19941;DHT22;10132;50.864;5.176;2024-02-14T01:06:17;9.40;99.90
19941;DHT22;10132;50.864;5.176;2024-02-14T01:08:18;9.40;99.90
19941;DHT22;10132;50.864;5.176;2024-02-14T01:10:21;9.40;99.90
19941;DHT22;10132;50.864;5.176;2024-02-14T01:12:22;9.40;99.90
19941;DHT22;10132;50.864;5.176;2024-02-14T01:14:24;9.40;99.90
19941;DHT22;10132;50.864;5.176;2024-02-14T01:16:26;9.40;99.90
19941;DHT22;10132;50.864;5.176;2024-02-14T01:18:28;9.40;99.90
19941;DHT22;10132;50.864;5.176;2024-02-14T01:20:30;9.40;99.90
19941;DHT22;10132;50.864;5.176;2024-02-14T01:22:34;9.40;99.90
19941;DHT22;10132;50.864;5.176;2024-02-14T01:24:35;9.40;99.90
19941;DHT22;10132;50.864;5.176;2024-02-14T01:26:37;9.40;99.90
19941;DHT22;10132;50.864;5.176;2024-02-14T01:28:39;9.40;99.90
19941;DHT22;10132;50.864;5.176;2024-02-14T01:30:44;9.50;99.90
19941;DHT22;10132;50.864;5.176;2024-02-14T01:32:46;9.40;99.90
19941;DHT22;10132;50.864;5.176;2024-02-14T01:34:48;9.50;99.90
19941;DHT22;10132;50.864;5.176;2024-02-14T01:36:50;9.50;99.90
19941;DHT22;10132;50.864;5.176;2024-02-14T01:38:53;9.50;99.90
19941;DHT22;10132;50.864;5.176;2024-02-14T01:40:55;9.50;99.90
19941;DHT22;10132;50.864;5.176;2024-02-14T01:42:57;9.50;99.90
19941;DHT22;10132;50.864;5.176;2024-02-14T01:44:59;9.50;99.90
19941;DHT22;10132;50.864;5.176;2024-02-14T01:47:04;9.60;99.90
19941;DHT22;10132;50.864;5.176;2024-02-14T01:49:07;9.60;99.90
19941;DHT22;10132;50.864;5.176;2024-02-14T01:51:11;9.50;99.90
19941;DHT22;10132;50.864;5.176;2024-02-14T01:53:13;9.60;99.90
19941;DHT22;10132;50.864;5.176;2024-02-14T01:55:15;9.60;99.90
19941;DHT22;10132;50.864;5.176;2024-02-14T01:57:17;9.70;99.90
19941;DHT22;10132;50.864;5.176;2024-02-14T01:59:20;9.70;99.90
19941;DHT22;10132;50.864;5.176;2024-02-14T02:01:24;9.70;99.90
19941;DHT22;10132;50.864;5.176;2024-02-14T02:03:26;9.70;99.90
19941;DHT22;10132;50.864;5.176;2024-02-14T02:05:28;9.70;99.90
19941;DHT22;10132;50.864;5.176;2024-02-14T02:07:31;9.70;99.90
19941;DHT22;10132;50.864;5.176;2024-02-14T02:09:33;9.70;99.90
19941;DHT22;10132;50.864;5.176;2024-02-14T02:11:45;9.70;99.90
19941;DHT22;10132;50.864;5.176;2024-02-14T02:13:48;9.60;99.90
19941;DHT22;10132;50.864;5.176;2024-02-14T02:15:50;9.60;99.90
19941;DHT22;10132;50.864;5.176;2024-02-14T02:17:52;9.60;99.90
19941;DHT22;10132;50.864;5.176;2024-02-14T02:19:54;9.50;99.90
19941;DHT22;10132;50.864;5.176;2024-02-14T02:21:57;9.60;99.90
19941;DHT22;10132;50.864;5.176;2024-02-14T02:24:01;9.60;99.90
19941;DHT22;10132;50.864;5.176;2024-02-14T02:26:03;9.60;99.90
19941;DHT22;10132;50.864;5.176;2024-02-14T02:28:05;9.60;99.90
19941;DHT22;10132;50.864;5.176;2024-02-14T02:30:09;9.60;99.90
19941;DHT22;10132;50.864;5.176;2024-02-14T02:32:14;9.60;99.90
19941;DHT22;10132;50.864;5.176;2024-02-14T02:34:17;9.60;99.90
19941;DHT22;10132;50.864;5.176;2024-02-14T02:36:18;9.50;99.90
19941;DHT22;10132;50.864;5.176;2024-02-14T02:38:21;9.50;99.90
19941;DHT22;10132;50.864;5.176;2024-02-14T02:40:25;9.50;99.90
19941;DHT22;10132;50.864;5.176;2024-02-14T02:42:27;9.50;99.90
19941;DHT22;10132;50.864;5.176;2024-02-14T02:44:30;9.50;99.90
19941;DHT22;10132;50.864;5.176;2024-02-14T02:46:32;9.50;99.90
19941;DHT22;10132;50.864;5.176;2024-02-14T02:48:34;9.40;99.90
19941;DHT22;10132;50.864;5.176;2024-02-14T02:50:36;9.50;99.90
19941;DHT22;10132;50.864;5.176;2024-02-14T02:52:38;9.50;99.90
19941;DHT22;10132;50.864;5.176;2024-02-14T02:54:41;9.50;99.90
19941;DHT22;10132;50.864;5.176;2024-02-14T02:56:45;9.50;99.90
19941;DHT22;10132;50.864;5.176;2024-02-14T02:58:47;9.50;99.90
19941;DHT22;10132;50.864;5.176;2024-02-14T03:00:50;9.40;99.90
19941;DHT22;10132;50.864;5.176;2024-02-14T03:02:52;9.40;99.90
19941;DHT22;10132;50.864;5.176;2024-02-14T03:04:54;9.50;99.90
19941;DHT22;10132;50.864;5.176;2024-02-14T03:06:56;9.40;99.90
19941;DHT22;10132;50.864;5.176;2024-02-14T03:08:57;9.40;99.90
19941;DHT22;10132;50.864;5.176;2024-02-14T03:11:03;9.40;99.90
19941;DHT22;10132;50.864;5.176;2024-02-14T03:13:07;9.40;99.90
19941;DHT22;10132;50.864;5.176;2024-02-14T03:15:10;9.40;99.90
19941;DHT22;10132;50.864;5.176;2024-02-14T03:17:11;9.40;99.90
19941;DHT22;10132;50.864;5.176;2024-02-14T03:19:13;9.40;99.90
19941;DHT22;10132;50.864;5.176;2024-02-14T03:21:15;9.40;99.90
19941;DHT22;10132;50.864;5.176;2024-02-14T03:23:17;9.50;99.90
19941;DHT22;10132;50.864;5.176;2024-02-14T03:25:20;9.50;99.90
19941;DHT22;10132;50.864;5.176;2024-02-14T03:27:22;9.50;99.90
19941;DHT22;10132;50.864;5.176;2024-02-14T03:29:28;9.60;99.90
19941;DHT22;10132;50.864;5.176;2024-02-14T03:31:30;9.60;99.90
19941;DHT22;10132;50.864;5.176;2024-02-14T03:33:31;9.60;99.90
19941;DHT22;10132;50.864;5.176;2024-02-14T03:35:33;9.60;99.90
19941;DHT22;10132;50.864;5.176;2024-02-14T03:37:35;9.70;99.90
19941;DHT22;10132;50.864;5.176;2024-02-14T03:39:38;9.70;99.90
19941;DHT22;10132;50.864;5.176;2024-02-14T03:41:39;9.70;99.90
19941;DHT22;10132;50.864;5.176;2024-02-14T03:43:40;9.70;99.90
19941;DHT22;10132;50.864;5.176;2024-02-14T03:45:44;9.70;99.90
19941;DHT22;10132;50.864;5.176;2024-02-14T03:47:46;9.70;99.90
19941;DHT22;10132;50.864;5.176;2024-02-14T03:49:48;9.60;99.90
19941;DHT22;10132;50.864;5.176;2024-02-14T03:51:51;9.70;99.90
19941;DHT22;10132;50.864;5.176;2024-02-14T03:53:55;9.70;99.90
19941;DHT22;10132;50.864;5.176;2024-02-14T03:55:57;9.70;99.90
19941;DHT22;10132;50.864;5.176;2024-02-14T03:57:59;9.70;99.90
19941;DHT22;10132;50.864;5.176;2024-02-14T04:00:01;9.70;99.90
19941;DHT22;10132;50.864;5.176;2024-02-14T04:02:04;9.70;99.90
19941;DHT22;10132;50.864;5.176;2024-02-14T04:04:09;9.80;99.90
19941;DHT22;10132;50.864;5.176;2024-02-14T04:06:10;9.80;99.90
19941;DHT22;10132;50.864;5.176;2024-02-14T04:08:12;9.80;99.90
19941;DHT22;10132;50.864;5.176;2024-02-14T04:10:14;9.80;99.90
19941;DHT22;10132;50.864;5.176;2024-02-14T04:12:16;9.80;99.90
19941;DHT22;10132;50.864;5.176;2024-02-14T04:14:18;9.70;99.90
19941;DHT22;10132;50.864;5.176;2024-02-14T04:16:20;9.70;99.90
19941;DHT22;10132;50.864;5.176;2024-02-14T04:18:24;9.70;99.90
19941;DHT22;10132;50.864;5.176;2024-02-14T04:20:26;9.70;99.90
19941;DHT22;10132;50.864;5.176;2024-02-14T04:22:28;9.70;99.90
19941;DHT22;10132;50.864;5.176;2024-02-14T04:24:29;9.70;99.90
19941;DHT22;10132;50.864;5.176;2024-02-14T04:26:31;9.70;99.90
19941;DHT22;10132;50.864;5.176;2024-02-14T04:28:32;9.70;99.90
19941;DHT22;10132;50.864;5.176;2024-02-14T04:30:34;9.70;99.90
19941;DHT22;10132;50.864;5.176;2024-02-14T04:32:38;9.80;99.90
19941;DHT22;10132;50.864;5.176;2024-02-14T04:34:41;9.80;99.90
19941;DHT22;10132;50.864;5.176;2024-02-14T04:36:44;9.70;99.90
19941;DHT22;10132;50.864;5.176;2024-02-14T04:38:47;9.70;99.90
19941;DHT22;10132;50.864;5.176;2024-02-14T04:40:49;9.80;99.90
19941;DHT22;10132;50.864;5.176;2024-02-14T04:42:51;9.80;99.90
19941;DHT22;10132;50.864;5.176;2024-02-14T04:44:53;9.70;99.90
19941;DHT22;10132;50.864;5.176;2024-02-14T04:46:55;9.70;99.90
19941;DHT22;10132;50.864;5.176;2024-02-14T04:48:59;9.80;99.90
19941;DHT22;10132;50.864;5.176;2024-02-14T04:51:05;9.70;99.90
19941;DHT22;10132;50.864;5.176;2024-02-14T04:53:07;9.80;99.90
19941;DHT22;10132;50.864;5.176;2024-02-14T04:55:09;9.80;99.90
19941;DHT22;10132;50.864;5.176;2024-02-14T04:57:11;9.80;99.90
19941;DHT22;10132;50.864;5.176;2024-02-14T04:59:14;9.80;99.90
19941;DHT22;10132;50.864;5.176;2024-02-14T05:01:16;9.80;99.90
19941;DHT22;10132;50.864;5.176;2024-02-14T05:03:19;9.80;99.90
19941;DHT22;10132;50.864;5.176;2024-02-14T05:05:21;9.90;99.90
19941;DHT22;10132;50.864;5.176;2024-02-14T05:07:25;9.90;99.90
19941;DHT22;10132;50.864;5.176;2024-02-14T05:09:27;9.80;99.90
19941;DHT22;10132;50.864;5.176;2024-02-14T05:11:29;9.80;99.90
19941;DHT22;10132;50.864;5.176;2024-02-14T05:13:31;9.80;99.90
19941;DHT22;10132;50.864;5.176;2024-02-14T05:15:33;9.80;99.90
19941;DHT22;10132;50.864;5.176;2024-02-14T05:17:35;9.80;99.90
19941;DHT22;10132;50.864;5.176;2024-02-14T05:19:36;9.80;99.90
19941;DHT22;10132;50.864;5.176;2024-02-14T05:21:38;9.80;99.90
19941;DHT22;10132;50.864;5.176;2024-02-14T05:23:42;9.80;99.90
19941;DHT22;10132;50.864;5.176;2024-02-14T05:25:44;9.80;99.90
19941;DHT22;10132;50.864;5.176;2024-02-14T05:27:46;9.80;99.90
19941;DHT22;10132;50.864;5.176;2024-02-14T05:29:48;9.80;99.90
19941;DHT22;10132;50.864;5.176;2024-02-14T05:31:49;9.80;99.90
19941;DHT22;10132;50.864;5.176;2024-02-14T05:33:53;9.90;99.90
19941;DHT22;10132;50.864;5.176;2024-02-14T05:35:55;9.90;99.90
19941;DHT22;10132;50.864;5.176;2024-02-14T05:37:57;9.80;99.90
19941;DHT22;10132;50.864;5.176;2024-02-14T05:40:00;9.90;99.90
19941;DHT22;10132;50.864;5.176;2024-02-14T05:42:03;10.00;99.90
19941;DHT22;10132;50.864;5.176;2024-02-14T05:44:06;9.90;99.90
19941;DHT22;10132;50.864;5.176;2024-02-14T05:46:09;9.90;99.90
19941;DHT22;10132;50.864;5.176;2024-02-14T05:48:11;10.00;99.90
19941;DHT22;10132;50.864;5.176;2024-02-14T05:50:13;9.90;99.90
19941;DHT22;10132;50.864;5.176;2024-02-14T05:52:14;9.90;99.90
19941;DHT22;10132;50.864;5.176;2024-02-14T05:54:16;9.90;99.90
19941;DHT22;10132;50.864;5.176;2024-02-14T05:56:20;9.90;99.90
19941;DHT22;10132;50.864;5.176;2024-02-14T05:58:22;9.90;99.90
19941;DHT22;10132;50.864;5.176;2024-02-14T06:00:24;10.00;99.90
19941;DHT22;10132;50.864;5.176;2024-02-14T06:02:27;10.00;99.90
19941;DHT22;10132;50.864;5.176;2024-02-14T06:04:29;10.00;99.90
19941;DHT22;10132;50.864;5.176;2024-02-14T06:06:31;10.00;99.90
19941;DHT22;10132;50.864;5.176;2024-02-14T06:08:32;10.00;99.90
19941;DHT22;10132;50.864;5.176;2024-02-14T06:10:35;10.00;99.90
19941;DHT22;10132;50.864;5.176;2024-02-14T06:12:40;10.00;99.90
19941;DHT22;10132;50.864;5.176;2024-02-14T06:14:43;10.00;99.90
19941;DHT22;10132;50.864;5.176;2024-02-14T06:16:46;10.00;99.90
19941;DHT22;10132;50.864;5.176;2024-02-14T06:18:48;10.00;99.90
19941;DHT22;10132;50.864;5.176;2024-02-14T06:20:50;10.10;99.90
19941;DHT22;10132;50.864;5.176;2024-02-14T06:22:52;10.10;99.90
19941;DHT22;10132;50.864;5.176;2024-02-14T06:24:55;10.10;99.90
19941;DHT22;10132;50.864;5.176;2024-02-14T06:26:57;10.20;99.90
19941;DHT22;10132;50.864;5.176;2024-02-14T06:29:00;10.20;99.90
19941;DHT22;10132;50.864;5.176;2024-02-14T06:31:03;10.20;99.90
19941;DHT22;10132;50.864;5.176;2024-02-14T06:33:04;10.20;99.90
19941;DHT22;10132;50.864;5.176;2024-02-14T06:35:06;10.20;99.90
19941;DHT22;10132;50.864;5.176;2024-02-14T06:37:08;10.20;99.90
19941;DHT22;10132;50.864;5.176;2024-02-14T06:39:09;10.20;99.90
19941;DHT22;10132;50.864;5.176;2024-02-14T06:41:11;10.20;99.90
19941;DHT22;10132;50.864;5.176;2024-02-14T06:43:12;10.20;99.90
19941;DHT22;10132;50.864;5.176;2024-02-14T06:45:16;10.20;99.90
19941;DHT22;10132;50.864;5.176;2024-02-14T06:47:18;10.30;99.90
19941;DHT22;10132;50.864;5.176;2024-02-14T06:49:20;10.30;99.90
19941;DHT22;10132;50.864;5.176;2024-02-14T06:51:22;10.20;99.90
19941;DHT22;10132;50.864;5.176;2024-02-14T06:53:24;10.20;99.90
19941;DHT22;10132;50.864;5.176;2024-02-14T06:55:26;10.30;99.90
19941;DHT22;10132;50.864;5.176;2024-02-14T06:57:28;10.20;99.90
19941;DHT22;10132;50.864;5.176;2024-02-14T06:59:30;10.30;99.90
19941;DHT22;10132;50.864;5.176;2024-02-14T07:01:34;10.30;99.90
19941;DHT22;10132;50.864;5.176;2024-02-14T07:03:36;10.30;99.90
19941;DHT22;10132;50.864;5.176;2024-02-14T07:05:38;10.30;99.90
19941;DHT22;10132;50.864;5.176;2024-02-14T07:07:40;10.30;99.90
19941;DHT22;10132;50.864;5.176;2024-02-14T07:09:42;10.30;99.90
19941;DHT22;10132;50.864;5.176;2024-02-14T07:11:44;10.30;99.90
19941;DHT22;10132;50.864;5.176;2024-02-14T07:13:46;10.30;99.90
19941;DHT22;10132;50.864;5.176;2024-02-14T07:15:48;10.40;99.90
19941;DHT22;10132;50.864;5.176;2024-02-14T07:17:51;10.50;99.90
19941;DHT22;10132;50.864;5.176;2024-02-14T07:19:54;10.50;99.90
19941;DHT22;10132;50.864;5.176;2024-02-14T07:21:55;10.50;99.90
19941;DHT22;10132;50.864;5.176;2024-02-14T07:23:57;10.50;99.90
19941;DHT22;10132;50.864;5.176;2024-02-14T07:25:59;10.60;99.90
19941;DHT22;10132;50.864;5.176;2024-02-14T07:28:01;10.60;99.90
19941;DHT22;10132;50.864;5.176;2024-02-14T07:30:02;10.60;99.90
19941;DHT22;10132;50.864;5.176;2024-02-14T07:32:06;10.60;99.90
19941;DHT22;10132;50.864;5.176;2024-02-14T07:34:10;10.60;99.90
19941;DHT22;10132;50.864;5.176;2024-02-14T07:36:13;10.60;99.90
19941;DHT22;10132;50.864;5.176;2024-02-14T07:38:15;10.60;99.90
19941;DHT22;10132;50.864;5.176;2024-02-14T07:40:18;10.60;99.90
19941;DHT22;10132;50.864;5.176;2024-02-14T07:42:20;10.60;99.90
19941;DHT22;10132;50.864;5.176;2024-02-14T07:44:22;10.70;99.90
19941;DHT22;10132;50.864;5.176;2024-02-14T07:46:24;10.70;99.90
19941;DHT22;10132;50.864;5.176;2024-02-14T07:48:27;10.70;99.90
19941;DHT22;10132;50.864;5.176;2024-02-14T07:50:31;10.70;99.90
19941;DHT22;10132;50.864;5.176;2024-02-14T07:52:33;10.70;99.90
19941;DHT22;10132;50.864;5.176;2024-02-14T07:54:34;10.80;99.90
19941;DHT22;10132;50.864;5.176;2024-02-14T07:56:37;10.80;99.90
19941;DHT22;10132;50.864;5.176;2024-02-14T07:58:39;10.80;99.90
19941;DHT22;10132;50.864;5.176;2024-02-14T08:00:41;10.80;99.90
19941;DHT22;10132;50.864;5.176;2024-02-14T08:02:43;10.80;99.90
19941;DHT22;10132;50.864;5.176;2024-02-14T08:04:45;10.80;99.90
19941;DHT22;10132;50.864;5.176;2024-02-14T08:06:48;10.90;99.90
19941;DHT22;10132;50.864;5.176;2024-02-14T08:08:50;10.90;99.90
19941;DHT22;10132;50.864;5.176;2024-02-14T08:10:57;11.00;99.90
19941;DHT22;10132;50.864;5.176;2024-02-14T08:12:58;11.00;99.90
19941;DHT22;10132;50.864;5.176;2024-02-14T08:15:00;11.10;99.90
19941;DHT22;10132;50.864;5.176;2024-02-14T08:17:05;11.00;99.90
19941;DHT22;10132;50.864;5.176;2024-02-14T08:19:07;11.00;99.90
19941;DHT22;10132;50.864;5.176;2024-02-14T08:21:09;11.00;99.90
19941;DHT22;10132;50.864;5.176;2024-02-14T08:23:12;11.00;99.90
19941;DHT22;10132;50.864;5.176;2024-02-14T08:25:14;11.00;99.90
19941;DHT22;10132;50.864;5.176;2024-02-14T08:27:16;11.20;99.90
19941;DHT22;10132;50.864;5.176;2024-02-14T08:29:17;11.20;99.90
19941;DHT22;10132;50.864;5.176;2024-02-14T08:31:20;11.20;99.90
19941;DHT22;10132;50.864;5.176;2024-02-14T08:33:22;11.20;99.90
19941;DHT22;10132;50.864;5.176;2024-02-14T08:35:24;11.20;99.90
19941;DHT22;10132;50.864;5.176;2024-02-14T08:37:26;11.20;99.90
19941;DHT22;10132;50.864;5.176;2024-02-14T08:39:29;11.10;99.90
19941;DHT22;10132;50.864;5.176;2024-02-14T08:41:31;11.10;99.90
19941;DHT22;10132;50.864;5.176;2024-02-14T08:43:33;11.10;99.90
19941;DHT22;10132;50.864;5.176;2024-02-14T08:45:35;11.20;99.90
19941;DHT22;10132;50.864;5.176;2024-02-14T08:47:38;11.20;99.90
19941;DHT22;10132;50.864;5.176;2024-02-14T08:49:41;11.20;99.90
19941;DHT22;10132;50.864;5.176;2024-02-14T08:51:43;11.30;99.90
19941;DHT22;10132;50.864;5.176;2024-02-14T08:53:46;11.30;99.90
19941;DHT22;10132;50.864;5.176;2024-02-14T08:55:50;11.30;99.90
19941;DHT22;10132;50.864;5.176;2024-02-14T08:57:52;11.30;99.90
19941;DHT22;10132;50.864;5.176;2024-02-14T08:59:53;11.30;99.90
19941;DHT22;10132;50.864;5.176;2024-02-14T09:01:55;11.40;99.90
19941;DHT22;10132;50.864;5.176;2024-02-14T09:03:57;11.30;99.90
19941;DHT22;10132;50.864;5.176;2024-02-14T09:05:59;11.30;99.90
19941;DHT22;10132;50.864;5.176;2024-02-14T09:08:04;11.30;99.90
19941;DHT22;10132;50.864;5.176;2024-02-14T09:10:06;11.20;99.90
19941;DHT22;10132;50.864;5.176;2024-02-14T09:12:10;11.20;99.90
19941;DHT22;10132;50.864;5.176;2024-02-14T09:14:12;11.20;99.90
19941;DHT22;10132;50.864;5.176;2024-02-14T09:16:14;11.10;99.90
19941;DHT22;10132;50.864;5.176;2024-02-14T09:18:16;11.20;99.90
19941;DHT22;10132;50.864;5.176;2024-02-14T09:20:19;11.20;99.90
19941;DHT22;10132;50.864;5.176;2024-02-14T09:22:22;11.20;99.90
19941;DHT22;10132;50.864;5.176;2024-02-14T09:24:24;11.20;99.90
19941;DHT22;10132;50.864;5.176;2024-02-14T09:26:26;11.10;99.90
19941;DHT22;10132;50.864;5.176;2024-02-14T09:28:30;11.10;99.90
19941;DHT22;10132;50.864;5.176;2024-02-14T09:30:34;11.10;99.90
19941;DHT22;10132;50.864;5.176;2024-02-14T09:32:35;11.10;99.90
19941;DHT22;10132;50.864;5.176;2024-02-14T09:34:37;11.10;99.90
19941;DHT22;10132;50.864;5.176;2024-02-14T09:36:39;11.10;99.90
19941;DHT22;10132;50.864;5.176;2024-02-14T09:38:41;11.10;99.90
19941;DHT22;10132;50.864;5.176;2024-02-14T09:40:43;11.10;99.90
19941;DHT22;10132;50.864;5.176;2024-02-14T09:42:51;11.00;99.90
19941;DHT22;10132;50.864;5.176;2024-02-14T09:44:58;11.10;99.90
19941;DHT22;10132;50.864;5.176;2024-02-14T09:47:01;11.10;99.90
19941;DHT22;10132;50.864;5.176;2024-02-14T09:49:06;11.10;99.90
19941;DHT22;10132;50.864;5.176;2024-02-14T09:51:08;11.20;99.90
19941;DHT22;10132;50.864;5.176;2024-02-14T09:53:11;11.10;99.90
19941;DHT22;10132;50.864;5.176;2024-02-14T09:55:14;11.10;99.90
19941;DHT22;10132;50.864;5.176;2024-02-14T09:57:17;11.10;99.90
19941;DHT22;10132;50.864;5.176;2024-02-14T09:59:19;11.10;99.90
19941;DHT22;10132;50.864;5.176;2024-02-14T10:01:25;11.10;99.90
19941;DHT22;10132;50.864;5.176;2024-02-14T10:03:27;11.20;99.90
19941;DHT22;10132;50.864;5.176;2024-02-14T10:05:28;11.30;99.90
19941;DHT22;10132;50.864;5.176;2024-02-14T10:07:39;11.30;99.90
19941;DHT22;10132;50.864;5.176;2024-02-14T10:09:42;11.40;99.90
19941;DHT22;10132;50.864;5.176;2024-02-14T10:11:44;11.40;99.90
19941;DHT22;10132;50.864;5.176;2024-02-14T10:13:47;11.50;99.90
19941;DHT22;10132;50.864;5.176;2024-02-14T10:16:09;11.50;99.90
19941;DHT22;10132;50.864;5.176;2024-02-14T10:18:15;11.50;99.90
19941;DHT22;10132;50.864;5.176;2024-02-14T10:20:18;11.50;99.90
19941;DHT22;10132;50.864;5.176;2024-02-14T10:22:22;11.60;99.90
19941;DHT22;10132;50.864;5.176;2024-02-14T10:24:25;11.60;99.90
19941;DHT22;10132;50.864;5.176;2024-02-14T10:26:26;11.60;99.90
19941;DHT22;10132;50.864;5.176;2024-02-14T10:28:28;11.60;99.90
19941;DHT22;10132;50.864;5.176;2024-02-14T10:30:31;11.60;99.90
19941;DHT22;10132;50.864;5.176;2024-02-14T10:32:33;11.50;99.90
19941;DHT22;10132;50.864;5.176;2024-02-14T10:34:37;11.60;99.90
19941;DHT22;10132;50.864;5.176;2024-02-14T10:36:42;11.50;99.90
19941;DHT22;10132;50.864;5.176;2024-02-14T10:38:46;11.60;99.90
19941;DHT22;10132;50.864;5.176;2024-02-14T10:40:50;11.50;99.90
19941;DHT22;10132;50.864;5.176;2024-02-14T10:42:52;11.50;99.90
19941;DHT22;10132;50.864;5.176;2024-02-14T10:44:55;11.60;99.90
19941;DHT22;10132;50.864;5.176;2024-02-14T10:46:59;11.50;99.90
19941;DHT22;10132;50.864;5.176;2024-02-14T10:49:04;11.50;99.90
19941;DHT22;10132;50.864;5.176;2024-02-14T10:51:10;11.50;99.90
19941;DHT22;10132;50.864;5.176;2024-02-14T10:53:16;11.50;99.90
19941;DHT22;10132;50.864;5.176;2024-02-14T10:55:21;11.50;99.90
19941;DHT22;10132;50.864;5.176;2024-02-14T10:57:27;11.40;99.90
19941;DHT22;10132;50.864;5.176;2024-02-14T10:59:30;11.40;99.90
19941;DHT22;10132;50.864;5.176;2024-02-14T11:01:34;11.40;99.90
19941;DHT22;10132;50.864;5.176;2024-02-14T11:03:37;11.40;99.90
19941;DHT22;10132;50.864;5.176;2024-02-14T11:05:46;11.40;99.90
19941;DHT22;10132;50.864;5.176;2024-02-14T11:07:50;11.40;99.90
19941;DHT22;10132;50.864;5.176;2024-02-14T11:10:01;11.30;99.90
19941;DHT22;10132;50.864;5.176;2024-02-14T11:12:06;11.40;99.90
19941;DHT22;10132;50.864;5.176;2024-02-14T11:14:08;11.40;99.90
19941;DHT22;10132;50.864;5.176;2024-02-14T11:16:10;11.40;99.90
19941;DHT22;10132;50.864;5.176;2024-02-14T11:18:25;11.50;99.90
19941;DHT22;10132;50.864;5.176;2024-02-14T11:20:31;11.50;99.90
19941;DHT22;10132;50.864;5.176;2024-02-14T11:22:34;11.40;99.90
19941;DHT22;10132;50.864;5.176;2024-02-14T11:24:38;11.50;99.90
19941;DHT22;10132;50.864;5.176;2024-02-14T11:26:45;11.50;99.90
19941;DHT22;10132;50.864;5.176;2024-02-14T11:28:46;11.50;99.90
19941;DHT22;10132;50.864;5.176;2024-02-14T11:30:49;11.50;99.90
19941;DHT22;10132;50.864;5.176;2024-02-14T11:32:52;11.50;99.90
19941;DHT22;10132;50.864;5.176;2024-02-14T11:34:53;11.60;99.90
19941;DHT22;10132;50.864;5.176;2024-02-14T11:36:56;11.60;99.90
19941;DHT22;10132;50.864;5.176;2024-02-14T11:38:58;11.60;99.90
19941;DHT22;10132;50.864;5.176;2024-02-14T11:41:03;11.60;99.90
19941;DHT22;10132;50.864;5.176;2024-02-14T11:43:05;11.60;99.90
19941;DHT22;10132;50.864;5.176;2024-02-14T11:45:10;11.60;99.90
19941;DHT22;10132;50.864;5.176;2024-02-14T11:47:12;11.60;99.90
19941;DHT22;10132;50.864;5.176;2024-02-14T11:49:14;11.60;99.90
19941;DHT22;10132;50.864;5.176;2024-02-14T11:51:17;11.60;99.90
19941;DHT22;10132;50.864;5.176;2024-02-14T11:53:20;11.70;99.90
19941;DHT22;10132;50.864;5.176;2024-02-14T11:55:28;11.70;99.90
19941;DHT22;10132;50.864;5.176;2024-02-14T11:57:32;11.60;99.90
19941;DHT22;10132;50.864;5.176;2024-02-14T11:59:34;11.70;99.90
19941;DHT22;10132;50.864;5.176;2024-02-14T12:01:37;11.70;99.90
19941;DHT22;10132;50.864;5.176;2024-02-14T12:03:39;11.70;99.90
19941;DHT22;10132;50.864;5.176;2024-02-14T12:05:42;11.80;99.90
19941;DHT22;10132;50.864;5.176;2024-02-14T12:07:44;11.70;99.90
19941;DHT22;10132;50.864;5.176;2024-02-14T12:09:46;11.70;99.90
19941;DHT22;10132;50.864;5.176;2024-02-14T12:11:49;11.80;99.90
19941;DHT22;10132;50.864;5.176;2024-02-14T12:13:52;11.70;99.90
19941;DHT22;10132;50.864;5.176;2024-02-14T12:15:53;11.70;99.90
19941;DHT22;10132;50.864;5.176;2024-02-14T12:17:55;11.80;99.90
19941;DHT22;10132;50.864;5.176;2024-02-14T12:20:07;11.80;99.90
19941;DHT22;10132;50.864;5.176;2024-02-14T12:22:10;11.80;99.90
19941;DHT22;10132;50.864;5.176;2024-02-14T12:24:18;11.80;99.90
19941;DHT22;10132;50.864;5.176;2024-02-14T12:26:20;11.80;99.90
19941;DHT22;10132;50.864;5.176;2024-02-14T12:28:23;11.80;99.90
19941;DHT22;10132;50.864;5.176;2024-02-14T12:30:42;11.90;99.90
19941;DHT22;10132;50.864;5.176;2024-02-14T12:32:46;11.80;99.90
19941;DHT22;10132;50.864;5.176;2024-02-14T12:34:47;11.90;99.90
19941;DHT22;10132;50.864;5.176;2024-02-14T12:36:49;11.90;99.90
19941;DHT22;10132;50.864;5.176;2024-02-14T12:38:51;12.00;99.90
19941;DHT22;10132;50.864;5.176;2024-02-14T12:40:54;12.00;99.90
19941;DHT22;10132;50.864;5.176;2024-02-14T12:42:56;11.90;99.90
19941;DHT22;10132;50.864;5.176;2024-02-14T12:44:58;12.00;99.90
19941;DHT22;10132;50.864;5.176;2024-02-14T12:47:01;11.90;99.90
19941;DHT22;10132;50.864;5.176;2024-02-14T12:49:03;11.90;99.90
19941;DHT22;10132;50.864;5.176;2024-02-14T12:51:05;11.90;99.90
19941;DHT22;10132;50.864;5.176;2024-02-14T12:53:07;11.90;99.90
19941;DHT22;10132;50.864;5.176;2024-02-14T12:55:10;11.90;99.90
19941;DHT22;10132;50.864;5.176;2024-02-14T12:57:11;12.00;99.90
19941;DHT22;10132;50.864;5.176;2024-02-14T12:59:17;12.00;99.90
19941;DHT22;10132;50.864;5.176;2024-02-14T13:01:19;12.10;99.90